sensor_id;sensor_type;location;lat;lon;timestamp;P1;durP1;ratioP1;P2;durP2;ratioP2
47167;SDS011;32931;47.778;17.806;2023-07-09T00:01:47;8.35;;;4.00;;
47167;SDS011;32931;47.778;17.806;2023-07-09T00:04:14;7.63;;;3.83;;
47167;SDS011;32931;47.778;17.806;2023-07-09T00:06:40;7.85;;;3.58;;
47167;SDS011;32931;47.778;17.806;2023-07-09T00:09:14;8.02;;;4.35;;
47167;SDS011;32931;47.778;17.806;2023-07-09T00:11:42;9.88;;;3.80;;
47167;SDS011;32931;47.778;17.806;2023-07-09T00:14:10;7.80;;;3.55;;
47167;SDS011;32931;47.778;17.806;2023-07-09T00:16:38;6.38;;;4.22;;
47167;SDS011;32931;47.778;17.806;2023-07-09T00:19:05;7.55;;;4.00;;
47167;SDS011;32931;47.778;17.806;2023-07-09T00:21:42;7.90;;;4.05;;
47167;SDS011;32931;47.778;17.806;2023-07-09T00:24:11;5.72;;;4.03;;
47167;SDS011;32931;47.778;17.806;2023-07-09T00:26:38;10.93;;;4.45;;
47167;SDS011;32931;47.778;17.806;2023-07-09T00:29:09;8.02;;;4.20;;
47167;SDS011;32931;47.778;17.806;2023-07-09T00:31:36;7.35;;;4.13;;
47167;SDS011;32931;47.778;17.806;2023-07-09T00:34:07;10.30;;;4.53;;
47167;SDS011;32931;47.778;17.806;2023-07-09T00:36:37;7.65;;;4.18;;
47167;SDS011;32931;47.778;17.806;2023-07-09T00:39:03;10.80;;;4.20;;
47167;SDS011;32931;47.778;17.806;2023-07-09T00:41:34;6.57;;;4.10;;
47167;SDS011;32931;47.778;17.806;2023-07-09T00:44:23;8.35;;;4.30;;
47167;SDS011;32931;47.778;17.806;2023-07-09T00:49:28;7.70;;;4.00;;
47167;SDS011;32931;47.778;17.806;2023-07-09T00:51:58;8.68;;;4.50;;
47167;SDS011;32931;47.778;17.806;2023-07-09T00:54:33;5.00;;;3.80;;
47167;SDS011;32931;47.778;17.806;2023-07-09T00:57:05;7.05;;;3.83;;
47167;SDS011;32931;47.778;17.806;2023-07-09T00:59:38;6.70;;;3.70;;
47167;SDS011;32931;47.778;17.806;2023-07-09T01:02:06;8.10;;;3.90;;
47167;SDS011;32931;47.778;17.806;2023-07-09T01:04:33;12.35;;;4.03;;
47167;SDS011;32931;47.778;17.806;2023-07-09T01:07:01;5.13;;;3.72;;
47167;SDS011;32931;47.778;17.806;2023-07-09T01:09:27;16.58;;;4.32;;
47167;SDS011;32931;47.778;17.806;2023-07-09T01:11:53;5.00;;;3.58;;
47167;SDS011;32931;47.778;17.806;2023-07-09T01:14:22;5.80;;;4.05;;
47167;SDS011;32931;47.778;17.806;2023-07-09T01:17:00;6.57;;;3.60;;
47167;SDS011;32931;47.778;17.806;2023-07-09T01:19:30;10.60;;;4.10;;
47167;SDS011;32931;47.778;17.806;2023-07-09T01:22:09;8.77;;;4.40;;
47167;SDS011;32931;47.778;17.806;2023-07-09T01:24:56;9.55;;;3.97;;
47167;SDS011;32931;47.778;17.806;2023-07-09T01:27:35;6.85;;;4.25;;
47167;SDS011;32931;47.778;17.806;2023-07-09T01:30:03;7.72;;;4.10;;
47167;SDS011;32931;47.778;17.806;2023-07-09T01:32:32;7.82;;;4.25;;
47167;SDS011;32931;47.778;17.806;2023-07-09T01:34:59;6.13;;;3.97;;
47167;SDS011;32931;47.778;17.806;2023-07-09T01:39:59;8.50;;;3.97;;
47167;SDS011;32931;47.778;17.806;2023-07-09T01:42:26;5.28;;;3.97;;
47167;SDS011;32931;47.778;17.806;2023-07-09T01:44:54;7.70;;;4.00;;
47167;SDS011;32931;47.778;17.806;2023-07-09T01:47:21;7.90;;;3.72;;
47167;SDS011;32931;47.778;17.806;2023-07-09T01:49:49;5.28;;;3.97;;
47167;SDS011;32931;47.778;17.806;2023-07-09T01:52:16;10.73;;;4.40;;
47167;SDS011;32931;47.778;17.806;2023-07-09T01:54:47;8.13;;;3.55;;
47167;SDS011;32931;47.778;17.806;2023-07-09T01:57:19;7.53;;;4.22;;
47167;SDS011;32931;47.778;17.806;2023-07-09T01:59:50;6.18;;;3.90;;
47167;SDS011;32931;47.778;17.806;2023-07-09T02:02:18;9.75;;;4.15;;
47167;SDS011;32931;47.778;17.806;2023-07-09T02:04:52;8.50;;;4.20;;
47167;SDS011;32931;47.778;17.806;2023-07-09T02:07:19;7.80;;;4.20;;
47167;SDS011;32931;47.778;17.806;2023-07-09T02:09:47;11.65;;;4.50;;
47167;SDS011;32931;47.778;17.806;2023-07-09T02:12:14;5.88;;;3.85;;
47167;SDS011;32931;47.778;17.806;2023-07-09T02:14:42;8.10;;;3.83;;
47167;SDS011;32931;47.778;17.806;2023-07-09T02:17:09;10.10;;;4.40;;
47167;SDS011;32931;47.778;17.806;2023-07-09T02:19:37;7.53;;;4.22;;
47167;SDS011;32931;47.778;17.806;2023-07-09T02:22:03;8.60;;;4.25;;
47167;SDS011;32931;47.778;17.806;2023-07-09T02:24:30;8.07;;;4.40;;
47167;SDS011;32931;47.778;17.806;2023-07-09T02:26:57;7.30;;;4.13;;
47167;SDS011;32931;47.778;17.806;2023-07-09T02:29:25;8.13;;;4.50;;
47167;SDS011;32931;47.778;17.806;2023-07-09T02:31:52;6.35;;;4.40;;
47167;SDS011;32931;47.778;17.806;2023-07-09T02:34:20;14.02;;;5.15;;
47167;SDS011;32931;47.778;17.806;2023-07-09T02:36:51;13.07;;;4.45;;
47167;SDS011;32931;47.778;17.806;2023-07-09T02:39:18;9.55;;;4.90;;
47167;SDS011;32931;47.778;17.806;2023-07-09T02:41:45;8.50;;;4.40;;
47167;SDS011;32931;47.778;17.806;2023-07-09T02:44:11;10.07;;;4.70;;
47167;SDS011;32931;47.778;17.806;2023-07-09T02:46:37;9.40;;;4.97;;
47167;SDS011;32931;47.778;17.806;2023-07-09T02:49:03;8.43;;;4.75;;
47167;SDS011;32931;47.778;17.806;2023-07-09T02:51:30;11.50;;;5.28;;
47167;SDS011;32931;47.778;17.806;2023-07-09T02:53:57;7.88;;;4.55;;
47167;SDS011;32931;47.778;17.806;2023-07-09T02:56:26;7.90;;;5.13;;
47167;SDS011;32931;47.778;17.806;2023-07-09T02:58:52;9.48;;;5.00;;
47167;SDS011;32931;47.778;17.806;2023-07-09T03:01:19;8.63;;;4.82;;
47167;SDS011;32931;47.778;17.806;2023-07-09T03:03:50;15.52;;;4.93;;
47167;SDS011;32931;47.778;17.806;2023-07-09T03:06:19;11.02;;;4.85;;
47167;SDS011;32931;47.778;17.806;2023-07-09T03:08:46;10.45;;;4.82;;
47167;SDS011;32931;47.778;17.806;2023-07-09T03:11:13;10.55;;;4.65;;
47167;SDS011;32931;47.778;17.806;2023-07-09T03:13:41;7.60;;;5.05;;
47167;SDS011;32931;47.778;17.806;2023-07-09T03:16:07;14.52;;;5.28;;
47167;SDS011;32931;47.778;17.806;2023-07-09T03:18:34;12.70;;;5.40;;
47167;SDS011;32931;47.778;17.806;2023-07-09T03:21:00;11.93;;;5.22;;
47167;SDS011;32931;47.778;17.806;2023-07-09T03:23:26;8.98;;;4.95;;
47167;SDS011;32931;47.778;17.806;2023-07-09T03:25:54;10.45;;;6.05;;
47167;SDS011;32931;47.778;17.806;2023-07-09T03:28:20;8.07;;;5.57;;
47167;SDS011;32931;47.778;17.806;2023-07-09T03:30:48;16.42;;;5.55;;
47167;SDS011;32931;47.778;17.806;2023-07-09T03:33:15;12.80;;;5.90;;
47167;SDS011;32931;47.778;17.806;2023-07-09T03:35:42;19.30;;;5.93;;
47167;SDS011;32931;47.778;17.806;2023-07-09T03:38:09;9.65;;;5.82;;
47167;SDS011;32931;47.778;17.806;2023-07-09T03:40:36;9.32;;;6.20;;
47167;SDS011;32931;47.778;17.806;2023-07-09T03:43:06;9.43;;;6.47;;
47167;SDS011;32931;47.778;17.806;2023-07-09T03:45:34;13.50;;;6.38;;
47167;SDS011;32931;47.778;17.806;2023-07-09T03:48:01;14.05;;;5.85;;
47167;SDS011;32931;47.778;17.806;2023-07-09T03:50:28;13.48;;;5.53;;
47167;SDS011;32931;47.778;17.806;2023-07-09T03:52:54;15.75;;;6.43;;
47167;SDS011;32931;47.778;17.806;2023-07-09T03:55:20;13.00;;;5.75;;
47167;SDS011;32931;47.778;17.806;2023-07-09T03:57:47;10.32;;;5.32;;
47167;SDS011;32931;47.778;17.806;2023-07-09T04:00:13;16.88;;;6.00;;
47167;SDS011;32931;47.778;17.806;2023-07-09T04:02:40;11.02;;;6.00;;
47167;SDS011;32931;47.778;17.806;2023-07-09T04:05:06;9.23;;;5.63;;
47167;SDS011;32931;47.778;17.806;2023-07-09T04:07:34;15.57;;;6.20;;
47167;SDS011;32931;47.778;17.806;2023-07-09T04:10:00;12.05;;;5.90;;
47167;SDS011;32931;47.778;17.806;2023-07-09T04:12:27;15.90;;;5.90;;
47167;SDS011;32931;47.778;17.806;2023-07-09T04:14:53;21.33;;;6.43;;
47167;SDS011;32931;47.778;17.806;2023-07-09T04:17:19;8.32;;;6.13;;
47167;SDS011;32931;47.778;17.806;2023-07-09T04:19:47;7.97;;;5.68;;
47167;SDS011;32931;47.778;17.806;2023-07-09T04:22:13;10.40;;;6.15;;
47167;SDS011;32931;47.778;17.806;2023-07-09T04:24:39;11.75;;;6.32;;
47167;SDS011;32931;47.778;17.806;2023-07-09T04:27:05;13.43;;;6.32;;
47167;SDS011;32931;47.778;17.806;2023-07-09T04:29:32;11.57;;;6.78;;
47167;SDS011;32931;47.778;17.806;2023-07-09T04:32:07;15.15;;;7.38;;
47167;SDS011;32931;47.778;17.806;2023-07-09T04:34:37;9.55;;;7.15;;
47167;SDS011;32931;47.778;17.806;2023-07-09T04:37:06;14.00;;;7.90;;
47167;SDS011;32931;47.778;17.806;2023-07-09T04:39:33;13.13;;;7.10;;
47167;SDS011;32931;47.778;17.806;2023-07-09T04:41:59;11.02;;;7.80;;
47167;SDS011;32931;47.778;17.806;2023-07-09T04:44:26;16.73;;;7.18;;
47167;SDS011;32931;47.778;17.806;2023-07-09T04:46:52;10.38;;;8.20;;
47167;SDS011;32931;47.778;17.806;2023-07-09T04:49:18;11.15;;;7.63;;
47167;SDS011;32931;47.778;17.806;2023-07-09T04:51:44;12.68;;;8.07;;
47167;SDS011;32931;47.778;17.806;2023-07-09T04:54:11;14.68;;;8.85;;
47167;SDS011;32931;47.778;17.806;2023-07-09T04:56:39;14.60;;;8.20;;
47167;SDS011;32931;47.778;17.806;2023-07-09T04:59:05;16.27;;;8.02;;
47167;SDS011;32931;47.778;17.806;2023-07-09T05:01:31;13.40;;;8.15;;
47167;SDS011;32931;47.778;17.806;2023-07-09T05:03:57;15.80;;;7.68;;
47167;SDS011;32931;47.778;17.806;2023-07-09T05:06:23;14.13;;;7.88;;
47167;SDS011;32931;47.778;17.806;2023-07-09T05:08:50;20.52;;;8.75;;
47167;SDS011;32931;47.778;17.806;2023-07-09T05:11:16;11.93;;;8.55;;
47167;SDS011;32931;47.778;17.806;2023-07-09T05:13:42;15.23;;;8.75;;
47167;SDS011;32931;47.778;17.806;2023-07-09T05:16:08;10.10;;;8.23;;
47167;SDS011;32931;47.778;17.806;2023-07-09T05:18:34;14.45;;;7.80;;
47167;SDS011;32931;47.778;17.806;2023-07-09T05:21:00;12.82;;;7.95;;
47167;SDS011;32931;47.778;17.806;2023-07-09T05:23:26;11.60;;;7.95;;
47167;SDS011;32931;47.778;17.806;2023-07-09T05:25:56;16.42;;;7.53;;
47167;SDS011;32931;47.778;17.806;2023-07-09T05:28:27;15.88;;;7.32;;
47167;SDS011;32931;47.778;17.806;2023-07-09T05:30:54;10.75;;;6.82;;
47167;SDS011;32931;47.778;17.806;2023-07-09T05:33:20;15.98;;;7.43;;
47167;SDS011;32931;47.778;17.806;2023-07-09T05:35:46;14.32;;;7.40;;
47167;SDS011;32931;47.778;17.806;2023-07-09T05:38:13;12.35;;;6.95;;
47167;SDS011;32931;47.778;17.806;2023-07-09T05:40:40;10.98;;;6.63;;
47167;SDS011;32931;47.778;17.806;2023-07-09T05:43:08;14.52;;;7.32;;
47167;SDS011;32931;47.778;17.806;2023-07-09T05:45:34;11.15;;;6.10;;
47167;SDS011;32931;47.778;17.806;2023-07-09T05:48:01;9.85;;;6.45;;
47167;SDS011;32931;47.778;17.806;2023-07-09T05:50:27;8.57;;;6.18;;
47167;SDS011;32931;47.778;17.806;2023-07-09T05:52:54;9.45;;;6.03;;
47167;SDS011;32931;47.778;17.806;2023-07-09T05:55:20;9.10;;;4.85;;
47167;SDS011;32931;47.778;17.806;2023-07-09T05:57:46;10.50;;;5.32;;
47167;SDS011;32931;47.778;17.806;2023-07-09T06:00:12;9.73;;;4.57;;
47167;SDS011;32931;47.778;17.806;2023-07-09T06:02:39;11.23;;;5.05;;
47167;SDS011;32931;47.778;17.806;2023-07-09T06:05:06;12.10;;;5.32;;
47167;SDS011;32931;47.778;17.806;2023-07-09T06:07:35;8.25;;;4.78;;
47167;SDS011;32931;47.778;17.806;2023-07-09T06:10:01;10.82;;;4.75;;
47167;SDS011;32931;47.778;17.806;2023-07-09T06:12:27;13.98;;;5.30;;
47167;SDS011;32931;47.778;17.806;2023-07-09T06:14:53;12.13;;;5.03;;
47167;SDS011;32931;47.778;17.806;2023-07-09T06:17:19;10.20;;;5.47;;
47167;SDS011;32931;47.778;17.806;2023-07-09T06:19:45;8.10;;;5.30;;
47167;SDS011;32931;47.778;17.806;2023-07-09T06:22:11;10.27;;;5.20;;
47167;SDS011;32931;47.778;17.806;2023-07-09T06:24:38;8.38;;;5.57;;
47167;SDS011;32931;47.778;17.806;2023-07-09T06:27:04;8.55;;;4.88;;
47167;SDS011;32931;47.778;17.806;2023-07-09T06:29:30;6.60;;;4.82;;
47167;SDS011;32931;47.778;17.806;2023-07-09T06:31:56;10.43;;;4.65;;
47167;SDS011;32931;47.778;17.806;2023-07-09T06:34:23;6.03;;;4.35;;
47167;SDS011;32931;47.778;17.806;2023-07-09T06:36:49;7.30;;;4.28;;
47167;SDS011;32931;47.778;17.806;2023-07-09T06:39:15;8.45;;;3.92;;
47167;SDS011;32931;47.778;17.806;2023-07-09T06:41:41;8.15;;;3.90;;
47167;SDS011;32931;47.778;17.806;2023-07-09T06:44:08;10.15;;;3.80;;
47167;SDS011;32931;47.778;17.806;2023-07-09T06:46:35;7.75;;;4.00;;
47167;SDS011;32931;47.778;17.806;2023-07-09T06:49:02;9.20;;;4.38;;
47167;SDS011;32931;47.778;17.806;2023-07-09T06:51:31;10.30;;;4.05;;
47167;SDS011;32931;47.778;17.806;2023-07-09T06:53:57;8.07;;;4.30;;
47167;SDS011;32931;47.778;17.806;2023-07-09T06:56:23;7.20;;;3.72;;
47167;SDS011;32931;47.778;17.806;2023-07-09T06:58:49;8.32;;;4.68;;
47167;SDS011;32931;47.778;17.806;2023-07-09T07:01:16;10.02;;;4.32;;
47167;SDS011;32931;47.778;17.806;2023-07-09T07:03:42;9.38;;;4.32;;
47167;SDS011;32931;47.778;17.806;2023-07-09T07:06:08;7.32;;;4.20;;
47167;SDS011;32931;47.778;17.806;2023-07-09T07:08:34;7.38;;;4.80;;
47167;SDS011;32931;47.778;17.806;2023-07-09T07:11:01;10.25;;;4.85;;
47167;SDS011;32931;47.778;17.806;2023-07-09T07:13:37;8.80;;;4.47;;
47167;SDS011;32931;47.778;17.806;2023-07-09T07:16:05;6.80;;;4.93;;
47167;SDS011;32931;47.778;17.806;2023-07-09T07:18:35;11.80;;;4.53;;
47167;SDS011;32931;47.778;17.806;2023-07-09T07:21:01;17.15;;;4.97;;
47167;SDS011;32931;47.778;17.806;2023-07-09T07:23:28;10.93;;;5.00;;
47167;SDS011;32931;47.778;17.806;2023-07-09T07:25:54;9.93;;;4.80;;
47167;SDS011;32931;47.778;17.806;2023-07-09T07:28:21;9.93;;;4.53;;
47167;SDS011;32931;47.778;17.806;2023-07-09T07:30:57;12.27;;;4.75;;
47167;SDS011;32931;47.778;17.806;2023-07-09T07:33:25;7.70;;;5.20;;
47167;SDS011;32931;47.778;17.806;2023-07-09T07:35:51;9.95;;;4.80;;
47167;SDS011;32931;47.778;17.806;2023-07-09T07:38:17;10.05;;;4.40;;
47167;SDS011;32931;47.778;17.806;2023-07-09T07:40:44;16.83;;;4.85;;
47167;SDS011;32931;47.778;17.806;2023-07-09T07:43:10;12.60;;;4.43;;
47167;SDS011;32931;47.778;17.806;2023-07-09T07:45:40;7.20;;;4.10;;
47167;SDS011;32931;47.778;17.806;2023-07-09T07:48:07;8.43;;;3.75;;
47167;SDS011;32931;47.778;17.806;2023-07-09T07:50:33;8.35;;;4.38;;
47167;SDS011;32931;47.778;17.806;2023-07-09T07:53:00;7.78;;;3.88;;
47167;SDS011;32931;47.778;17.806;2023-07-09T07:55:26;14.30;;;4.57;;
47167;SDS011;32931;47.778;17.806;2023-07-09T07:57:53;10.40;;;4.75;;
47167;SDS011;32931;47.778;17.806;2023-07-09T08:00:19;15.63;;;5.32;;
47167;SDS011;32931;47.778;17.806;2023-07-09T08:02:45;10.85;;;4.97;;
47167;SDS011;32931;47.778;17.806;2023-07-09T08:05:11;11.02;;;4.22;;
47167;SDS011;32931;47.778;17.806;2023-07-09T08:07:38;10.88;;;4.95;;
47167;SDS011;32931;47.778;17.806;2023-07-09T08:10:04;33.20;;;8.88;;
47167;SDS011;32931;47.778;17.806;2023-07-09T08:12:31;7.05;;;4.72;;
47167;SDS011;32931;47.778;17.806;2023-07-09T08:14:57;9.60;;;4.68;;
47167;SDS011;32931;47.778;17.806;2023-07-09T08:17:23;13.63;;;5.18;;
47167;SDS011;32931;47.778;17.806;2023-07-09T08:19:51;9.65;;;4.78;;
47167;SDS011;32931;47.778;17.806;2023-07-09T08:22:19;9.80;;;4.43;;
47167;SDS011;32931;47.778;17.806;2023-07-09T08:24:47;10.52;;;4.00;;
47167;SDS011;32931;47.778;17.806;2023-07-09T08:27:14;10.43;;;3.80;;
47167;SDS011;32931;47.778;17.806;2023-07-09T08:29:40;10.77;;;4.63;;
47167;SDS011;32931;47.778;17.806;2023-07-09T08:32:08;7.50;;;4.20;;
47167;SDS011;32931;47.778;17.806;2023-07-09T08:34:36;7.38;;;4.65;;
47167;SDS011;32931;47.778;17.806;2023-07-09T08:37:03;10.60;;;4.00;;
47167;SDS011;32931;47.778;17.806;2023-07-09T08:39:31;13.15;;;4.38;;
47167;SDS011;32931;47.778;17.806;2023-07-09T08:47:29;9.73;;;4.30;;
47167;SDS011;32931;47.778;17.806;2023-07-09T08:50:19;6.25;;;3.50;;
47167;SDS011;32931;47.778;17.806;2023-07-09T08:52:48;8.88;;;3.63;;
47167;SDS011;32931;47.778;17.806;2023-07-09T08:55:17;6.63;;;3.97;;
47167;SDS011;32931;47.778;17.806;2023-07-09T08:58:02;6.43;;;3.88;;
47167;SDS011;32931;47.778;17.806;2023-07-09T09:03:38;5.97;;;4.03;;
47167;SDS011;32931;47.778;17.806;2023-07-09T09:06:14;7.47;;;4.20;;
47167;SDS011;32931;47.778;17.806;2023-07-09T09:14:09;5.53;;;3.65;;
47167;SDS011;32931;47.778;17.806;2023-07-09T09:16:52;10.45;;;3.47;;
47167;SDS011;32931;47.778;17.806;2023-07-09T09:24:33;9.30;;;4.20;;
47167;SDS011;32931;47.778;17.806;2023-07-09T09:27:02;7.38;;;3.92;;
47167;SDS011;32931;47.778;17.806;2023-07-09T09:29:28;5.70;;;3.50;;
47167;SDS011;32931;47.778;17.806;2023-07-09T09:31:55;6.80;;;3.80;;
47167;SDS011;32931;47.778;17.806;2023-07-09T09:34:27;6.30;;;3.80;;
47167;SDS011;32931;47.778;17.806;2023-07-09T09:36:55;10.00;;;3.47;;
47167;SDS011;32931;47.778;17.806;2023-07-09T09:39:24;8.40;;;3.58;;
47167;SDS011;32931;47.778;17.806;2023-07-09T09:41:52;8.85;;;3.75;;
47167;SDS011;32931;47.778;17.806;2023-07-09T09:44:23;6.32;;;3.20;;
47167;SDS011;32931;47.778;17.806;2023-07-09T09:46:52;11.70;;;4.53;;
47167;SDS011;32931;47.778;17.806;2023-07-09T09:49:21;7.22;;;3.30;;
47167;SDS011;32931;47.778;17.806;2023-07-09T09:51:47;7.18;;;3.38;;
47167;SDS011;32931;47.778;17.806;2023-07-09T09:54:21;7.60;;;3.83;;
47167;SDS011;32931;47.778;17.806;2023-07-09T09:56:50;8.50;;;3.47;;
47167;SDS011;32931;47.778;17.806;2023-07-09T09:59:24;5.63;;;2.63;;
47167;SDS011;32931;47.778;17.806;2023-07-09T10:01:56;8.27;;;3.70;;
47167;SDS011;32931;47.778;17.806;2023-07-09T10:04:24;6.68;;;3.75;;
47167;SDS011;32931;47.778;17.806;2023-07-09T10:06:51;5.25;;;3.10;;
47167;SDS011;32931;47.778;17.806;2023-07-09T10:20:35;7.15;;;3.30;;
47167;SDS011;32931;47.778;17.806;2023-07-09T10:28:29;6.43;;;2.95;;
47167;SDS011;32931;47.778;17.806;2023-07-09T10:33:55;8.30;;;3.25;;
47167;SDS011;32931;47.778;17.806;2023-07-09T10:36:58;5.75;;;3.10;;
47167;SDS011;32931;47.778;17.806;2023-07-09T10:39:33;7.15;;;2.97;;
47167;SDS011;32931;47.778;17.806;2023-07-09T10:42:04;7.93;;;3.05;;
47167;SDS011;32931;47.778;17.806;2023-07-09T10:44:51;7.55;;;3.60;;
47167;SDS011;32931;47.778;17.806;2023-07-09T10:50:01;4.10;;;2.85;;
47167;SDS011;32931;47.778;17.806;2023-07-09T10:52:30;4.97;;;3.03;;
47167;SDS011;32931;47.778;17.806;2023-07-09T10:55:04;6.90;;;3.40;;
47167;SDS011;32931;47.778;17.806;2023-07-09T10:57:48;7.53;;;3.40;;
47167;SDS011;32931;47.778;17.806;2023-07-09T11:00:23;5.63;;;2.80;;
47167;SDS011;32931;47.778;17.806;2023-07-09T11:03:03;4.95;;;3.15;;
47167;SDS011;32931;47.778;17.806;2023-07-09T11:05:42;6.78;;;2.90;;
47167;SDS011;32931;47.778;17.806;2023-07-09T11:08:12;5.40;;;3.17;;
47167;SDS011;32931;47.778;17.806;2023-07-09T11:10:53;8.38;;;2.67;;
47167;SDS011;32931;47.778;17.806;2023-07-09T11:13:43;5.13;;;2.42;;
47167;SDS011;32931;47.778;17.806;2023-07-09T11:16:14;6.15;;;2.22;;
47167;SDS011;32931;47.778;17.806;2023-07-09T11:18:52;3.80;;;2.50;;
47167;SDS011;32931;47.778;17.806;2023-07-09T11:21:21;4.93;;;2.60;;
47167;SDS011;32931;47.778;17.806;2023-07-09T11:23:52;5.25;;;2.90;;
47167;SDS011;32931;47.778;17.806;2023-07-09T11:26:23;7.25;;;2.60;;
47167;SDS011;32931;47.778;17.806;2023-07-09T11:28:51;4.53;;;2.80;;
47167;SDS011;32931;47.778;17.806;2023-07-09T11:31:38;5.90;;;2.50;;
47167;SDS011;32931;47.778;17.806;2023-07-09T11:36:51;3.88;;;2.45;;
47167;SDS011;32931;47.778;17.806;2023-07-09T11:39:29;6.40;;;2.92;;
47167;SDS011;32931;47.778;17.806;2023-07-09T11:41:56;4.28;;;2.85;;
47167;SDS011;32931;47.778;17.806;2023-07-09T11:44:25;4.07;;;2.00;;
47167;SDS011;32931;47.778;17.806;2023-07-09T11:49:52;4.00;;;2.75;;
47167;SDS011;32931;47.778;17.806;2023-07-09T11:52:36;4.82;;;2.78;;
47167;SDS011;32931;47.778;17.806;2023-07-09T11:57:52;7.00;;;2.80;;
47167;SDS011;32931;47.778;17.806;2023-07-09T12:00:29;4.00;;;2.65;;
47167;SDS011;32931;47.778;17.806;2023-07-09T12:03:03;7.60;;;2.70;;
47167;SDS011;32931;47.778;17.806;2023-07-09T12:05:31;4.65;;;2.45;;
47167;SDS011;32931;47.778;17.806;2023-07-09T12:07:58;6.38;;;2.55;;
47167;SDS011;32931;47.778;17.806;2023-07-09T12:10:31;3.85;;;2.78;;
47167;SDS011;32931;47.778;17.806;2023-07-09T12:13:00;5.97;;;2.55;;
47167;SDS011;32931;47.778;17.806;2023-07-09T12:15:29;6.72;;;2.83;;
47167;SDS011;32931;47.778;17.806;2023-07-09T12:17:58;11.65;;;3.20;;
47167;SDS011;32931;47.778;17.806;2023-07-09T12:20:28;5.78;;;2.47;;
47167;SDS011;32931;47.778;17.806;2023-07-09T12:22:56;7.10;;;2.53;;
47167;SDS011;32931;47.778;17.806;2023-07-09T12:25:24;7.07;;;2.55;;
47167;SDS011;32931;47.778;17.806;2023-07-09T12:27:52;3.78;;;2.53;;
47167;SDS011;32931;47.778;17.806;2023-07-09T12:30:19;4.72;;;2.50;;
47167;SDS011;32931;47.778;17.806;2023-07-09T12:32:49;11.60;;;2.58;;
47167;SDS011;32931;47.778;17.806;2023-07-09T12:35:18;5.10;;;2.60;;
47167;SDS011;32931;47.778;17.806;2023-07-09T12:37:45;6.72;;;3.00;;
47167;SDS011;32931;47.778;17.806;2023-07-09T12:40:19;5.30;;;3.05;;
47167;SDS011;32931;47.778;17.806;2023-07-09T12:42:48;6.80;;;2.67;;
47167;SDS011;32931;47.778;17.806;2023-07-09T12:45:18;5.78;;;2.50;;
47167;SDS011;32931;47.778;17.806;2023-07-09T12:47:46;8.52;;;2.75;;
47167;SDS011;32931;47.778;17.806;2023-07-09T12:52:45;5.43;;;3.17;;
47167;SDS011;32931;47.778;17.806;2023-07-09T12:55:20;14.23;;;2.92;;
47167;SDS011;32931;47.778;17.806;2023-07-09T12:57:54;7.40;;;3.10;;
47167;SDS011;32931;47.778;17.806;2023-07-09T13:00:22;6.68;;;2.22;;
47167;SDS011;32931;47.778;17.806;2023-07-09T13:02:55;5.75;;;2.60;;
47167;SDS011;32931;47.778;17.806;2023-07-09T13:05:24;5.53;;;2.42;;
47167;SDS011;32931;47.778;17.806;2023-07-09T13:07:53;3.55;;;2.10;;
47167;SDS011;32931;47.778;17.806;2023-07-09T13:10:27;7.05;;;2.60;;
47167;SDS011;32931;47.778;17.806;2023-07-09T13:12:56;3.60;;;2.35;;
47167;SDS011;32931;47.778;17.806;2023-07-09T13:15:27;6.88;;;2.55;;
47167;SDS011;32931;47.778;17.806;2023-07-09T13:18:04;8.27;;;2.70;;
47167;SDS011;32931;47.778;17.806;2023-07-09T13:20:33;4.60;;;2.70;;
47167;SDS011;32931;47.778;17.806;2023-07-09T13:23:04;5.38;;;2.65;;
47167;SDS011;32931;47.778;17.806;2023-07-09T13:25:39;6.40;;;2.53;;
47167;SDS011;32931;47.778;17.806;2023-07-09T13:28:10;6.72;;;2.85;;
47167;SDS011;32931;47.778;17.806;2023-07-09T13:30:43;4.43;;;2.58;;
47167;SDS011;32931;47.778;17.806;2023-07-09T13:33:09;5.05;;;2.80;;
47167;SDS011;32931;47.778;17.806;2023-07-09T13:35:37;6.15;;;3.10;;
47167;SDS011;32931;47.778;17.806;2023-07-09T13:38:08;5.38;;;2.42;;
47167;SDS011;32931;47.778;17.806;2023-07-09T13:40:38;5.85;;;2.95;;
47167;SDS011;32931;47.778;17.806;2023-07-09T13:43:07;6.60;;;2.75;;
47167;SDS011;32931;47.778;17.806;2023-07-09T13:45:45;4.38;;;2.72;;
47167;SDS011;32931;47.778;17.806;2023-07-09T13:48:17;4.50;;;2.97;;
47167;SDS011;32931;47.778;17.806;2023-07-09T13:50:47;8.43;;;2.80;;
47167;SDS011;32931;47.778;17.806;2023-07-09T13:53:19;8.65;;;2.88;;
47167;SDS011;32931;47.778;17.806;2023-07-09T13:55:48;4.50;;;2.55;;
47167;SDS011;32931;47.778;17.806;2023-07-09T13:58:18;6.82;;;2.60;;
47167;SDS011;32931;47.778;17.806;2023-07-09T14:00:46;7.38;;;2.97;;
47167;SDS011;32931;47.778;17.806;2023-07-09T14:03:16;9.43;;;3.47;;
47167;SDS011;32931;47.778;17.806;2023-07-09T14:05:44;7.47;;;2.88;;
47167;SDS011;32931;47.778;17.806;2023-07-09T14:08:11;9.65;;;2.63;;
47167;SDS011;32931;47.778;17.806;2023-07-09T14:10:38;10.82;;;3.25;;
47167;SDS011;32931;47.778;17.806;2023-07-09T14:13:05;6.63;;;3.17;;
47167;SDS011;32931;47.778;17.806;2023-07-09T14:15:34;6.10;;;2.90;;
47167;SDS011;32931;47.778;17.806;2023-07-09T14:18:00;19.35;;;2.90;;
47167;SDS011;32931;47.778;17.806;2023-07-09T14:20:27;15.40;;;3.05;;
47167;SDS011;32931;47.778;17.806;2023-07-09T14:22:54;6.40;;;2.85;;
47167;SDS011;32931;47.778;17.806;2023-07-09T14:25:22;5.25;;;2.75;;
47167;SDS011;32931;47.778;17.806;2023-07-09T14:27:50;14.38;;;2.95;;
47167;SDS011;32931;47.778;17.806;2023-07-09T14:30:19;3.92;;;2.90;;
47167;SDS011;32931;47.778;17.806;2023-07-09T14:32:47;3.05;;;2.70;;
47167;SDS011;32931;47.778;17.806;2023-07-09T14:35:16;7.65;;;2.70;;
47167;SDS011;32931;47.778;17.806;2023-07-09T14:37:45;11.15;;;3.30;;
47167;SDS011;32931;47.778;17.806;2023-07-09T14:40:13;11.55;;;2.65;;
47167;SDS011;32931;47.778;17.806;2023-07-09T14:42:40;5.22;;;2.60;;
47167;SDS011;32931;47.778;17.806;2023-07-09T14:45:18;4.82;;;2.70;;
47167;SDS011;32931;47.778;17.806;2023-07-09T14:47:50;3.55;;;2.53;;
47167;SDS011;32931;47.778;17.806;2023-07-09T14:50:17;4.15;;;2.78;;
47167;SDS011;32931;47.778;17.806;2023-07-09T14:52:44;9.07;;;2.78;;
47167;SDS011;32931;47.778;17.806;2023-07-09T14:55:15;3.65;;;2.60;;
47167;SDS011;32931;47.778;17.806;2023-07-09T14:57:44;5.43;;;2.78;;
47167;SDS011;32931;47.778;17.806;2023-07-09T15:00:15;5.32;;;2.70;;
47167;SDS011;32931;47.778;17.806;2023-07-09T15:02:44;4.13;;;2.70;;
47167;SDS011;32931;47.778;17.806;2023-07-09T15:05:16;4.30;;;2.63;;
47167;SDS011;32931;47.778;17.806;2023-07-09T15:07:50;5.03;;;3.05;;
47167;SDS011;32931;47.778;17.806;2023-07-09T15:10:26;7.95;;;3.05;;
47167;SDS011;32931;47.778;17.806;2023-07-09T15:12:52;9.65;;;2.70;;
47167;SDS011;32931;47.778;17.806;2023-07-09T15:15:22;5.20;;;2.92;;
47167;SDS011;32931;47.778;17.806;2023-07-09T15:18:01;5.75;;;2.88;;
47167;SDS011;32931;47.778;17.806;2023-07-09T15:20:36;6.45;;;3.03;;
47167;SDS011;32931;47.778;17.806;2023-07-09T15:23:03;4.93;;;3.00;;
47167;SDS011;32931;47.778;17.806;2023-07-09T15:25:30;9.05;;;2.95;;
47167;SDS011;32931;47.778;17.806;2023-07-09T15:27:56;9.38;;;3.08;;
47167;SDS011;32931;47.778;17.806;2023-07-09T15:30:24;6.53;;;2.95;;
47167;SDS011;32931;47.778;17.806;2023-07-09T15:32:54;3.58;;;2.65;;
47167;SDS011;32931;47.778;17.806;2023-07-09T15:35:22;6.28;;;2.60;;
47167;SDS011;32931;47.778;17.806;2023-07-09T15:37:50;7.85;;;3.00;;
47167;SDS011;32931;47.778;17.806;2023-07-09T15:40:21;5.15;;;2.78;;